Winfield, Georgia
Current Conditions -  °F | °C
As of 6:15 PM on Saturday 25 Oct 2014 (Local Time) from KHQU Reporting Station
Clear Clear  
Wind Chill: 71°   Ceiling: Unl
Heat Index: 71°   Visibility: 10mi
Dew Point: 58°   Wind: 0mph
Humidity: 65%   Direction: NA
Pressure: 30.01"   Gusts: NA
Location:  33.5142°N, 82.516°W
Report Text: KHQU 252215Z AUTO 00000KT 10SM CLR 22/15 A3001 RMK AO1 T02160147
Loading
Personal Weather Stations






























Interactive Weather Map
Tropical Storm Tracking
New forecast layout! Learn more

10-Day Weather Forecast

Advertisements
Track Severe Weather on mobile